sensor_id;sensor_type;location;lat;lon;timestamp;P1;durP1;ratioP1;P2;durP2;ratioP2
37657;SDS011;23500;53.268;8.308;2023-03-23T00:01:12;0.85;;;0.77;;
37657;SDS011;23500;53.268;8.308;2023-03-23T00:03:40;1.48;;;0.65;;
37657;SDS011;23500;53.268;8.308;2023-03-23T00:06:07;1.38;;;0.60;;
37657;SDS011;23500;53.268;8.308;2023-03-23T00:08:33;2.85;;;0.82;;
37657;SDS011;23500;53.268;8.308;2023-03-23T00:11:12;0.70;;;0.70;;
37657;SDS011;23500;53.268;8.308;2023-03-23T00:13:47;0.98;;;0.70;;
37657;SDS011;23500;53.268;8.308;2023-03-23T00:16:16;2.50;;;0.90;;
37657;SDS011;23500;53.268;8.308;2023-03-23T00:18:56;1.65;;;0.93;;
37657;SDS011;23500;53.268;8.308;2023-03-23T00:21:23;1.85;;;0.80;;
37657;SDS011;23500;53.268;8.308;2023-03-23T00:24:02;2.47;;;0.88;;
37657;SDS011;23500;53.268;8.308;2023-03-23T00:26:33;1.27;;;0.90;;
37657;SDS011;23500;53.268;8.308;2023-03-23T00:29:01;1.02;;;0.80;;
37657;SDS011;23500;53.268;8.308;2023-03-23T00:31:30;0.88;;;0.60;;
37657;SDS011;23500;53.268;8.308;2023-03-23T00:34:01;1.00;;;0.70;;
37657;SDS011;23500;53.268;8.308;2023-03-23T00:36:29;2.25;;;0.85;;
37657;SDS011;23500;53.268;8.308;2023-03-23T00:38:56;1.25;;;0.73;;
37657;SDS011;23500;53.268;8.308;2023-03-23T00:41:27;0.82;;;0.68;;
37657;SDS011;23500;53.268;8.308;2023-03-23T00:43:54;0.70;;;0.70;;
37657;SDS011;23500;53.268;8.308;2023-03-23T00:46:21;0.70;;;0.60;;
37657;SDS011;23500;53.268;8.308;2023-03-23T00:48:47;0.65;;;0.55;;
37657;SDS011;23500;53.268;8.308;2023-03-23T00:51:15;1.58;;;0.70;;
37657;SDS011;23500;53.268;8.308;2023-03-23T00:53:43;1.95;;;0.90;;
37657;SDS011;23500;53.268;8.308;2023-03-23T00:56:09;2.45;;;0.70;;
37657;SDS011;23500;53.268;8.308;2023-03-23T00:58:35;0.60;;;0.55;;
37657;SDS011;23500;53.268;8.308;2023-03-23T01:01:01;0.60;;;0.60;;
37657;SDS011;23500;53.268;8.308;2023-03-23T01:03:27;0.68;;;0.68;;
37657;SDS011;23500;53.268;8.308;2023-03-23T01:05:54;3.00;;;0.70;;
37657;SDS011;23500;53.268;8.308;2023-03-23T01:08:21;1.17;;;0.68;;
37657;SDS011;23500;53.268;8.308;2023-03-23T01:10:47;0.98;;;0.70;;
37657;SDS011;23500;53.268;8.308;2023-03-23T01:13:14;0.85;;;0.68;;
37657;SDS011;23500;53.268;8.308;2023-03-23T01:15:41;1.00;;;0.70;;
37657;SDS011;23500;53.268;8.308;2023-03-23T01:18:08;0.95;;;0.70;;
37657;SDS011;23500;53.268;8.308;2023-03-23T01:20:35;1.13;;;0.70;;
37657;SDS011;23500;53.268;8.308;2023-03-23T01:23:02;0.73;;;0.70;;
37657;SDS011;23500;53.268;8.308;2023-03-23T01:25:28;0.80;;;0.80;;
37657;SDS011;23500;53.268;8.308;2023-03-23T01:27:56;1.00;;;0.80;;
37657;SDS011;23500;53.268;8.308;2023-03-23T01:30:22;0.80;;;0.80;;
37657;SDS011;23500;53.268;8.308;2023-03-23T01:32:49;1.15;;;0.80;;
37657;SDS011;23500;53.268;8.308;2023-03-23T01:35:15;0.70;;;0.70;;
37657;SDS011;23500;53.268;8.308;2023-03-23T01:37:41;0.85;;;0.77;;
37657;SDS011;23500;53.268;8.308;2023-03-23T01:40:07;0.88;;;0.60;;
37657;SDS011;23500;53.268;8.308;2023-03-23T01:42:34;0.90;;;0.65;;
37657;SDS011;23500;53.268;8.308;2023-03-23T01:45:22;0.60;;;0.60;;
37657;SDS011;23500;53.268;8.308;2023-03-23T01:48:04;0.65;;;0.65;;
37657;SDS011;23500;53.268;8.308;2023-03-23T01:50:37;0.85;;;0.80;;
37657;SDS011;23500;53.268;8.308;2023-03-23T01:53:13;1.55;;;0.70;;
37657;SDS011;23500;53.268;8.308;2023-03-23T01:55:39;0.73;;;0.73;;
37657;SDS011;23500;53.268;8.308;2023-03-23T01:58:08;0.80;;;0.70;;
37657;SDS011;23500;53.268;8.308;2023-03-23T02:00:36;0.80;;;0.80;;
37657;SDS011;23500;53.268;8.308;2023-03-23T02:03:05;0.88;;;0.70;;
37657;SDS011;23500;53.268;8.308;2023-03-23T02:05:34;0.90;;;0.80;;
37657;SDS011;23500;53.268;8.308;2023-03-23T02:08:03;0.88;;;0.80;;
37657;SDS011;23500;53.268;8.308;2023-03-23T02:10:31;0.88;;;0.70;;
37657;SDS011;23500;53.268;8.308;2023-03-23T02:12:58;0.70;;;0.70;;
37657;SDS011;23500;53.268;8.308;2023-03-23T02:15:26;0.77;;;0.77;;
37657;SDS011;23500;53.268;8.308;2023-03-23T02:23:48;1.15;;;0.88;;
37657;SDS011;23500;53.268;8.308;2023-03-23T02:32:03;0.90;;;0.80;;
37657;SDS011;23500;53.268;8.308;2023-03-23T02:35:13;1.60;;;0.80;;
37657;SDS011;23500;53.268;8.308;2023-03-23T02:37:50;1.08;;;0.90;;
37657;SDS011;23500;53.268;8.308;2023-03-23T02:40:24;0.90;;;0.90;;
37657;SDS011;23500;53.268;8.308;2023-03-23T02:42:54;1.02;;;0.80;;
37657;SDS011;23500;53.268;8.308;2023-03-23T02:45:22;0.70;;;0.70;;
37657;SDS011;23500;53.268;8.308;2023-03-23T02:47:52;0.70;;;0.70;;
37657;SDS011;23500;53.268;8.308;2023-03-23T02:50:20;1.00;;;0.90;;
37657;SDS011;23500;53.268;8.308;2023-03-23T02:52:49;0.93;;;0.80;;
37657;SDS011;23500;53.268;8.308;2023-03-23T02:55:17;0.70;;;0.70;;
37657;SDS011;23500;53.268;8.308;2023-03-23T02:57:45;1.33;;;0.80;;
37657;SDS011;23500;53.268;8.308;2023-03-23T03:00:12;1.55;;;0.80;;
37657;SDS011;23500;53.268;8.308;2023-03-23T03:02:41;0.73;;;0.73;;
37657;SDS011;23500;53.268;8.308;2023-03-23T03:05:13;0.82;;;0.80;;
37657;SDS011;23500;53.268;8.308;2023-03-23T03:10:43;0.82;;;0.82;;
37657;SDS011;23500;53.268;8.308;2023-03-23T03:13:31;0.70;;;0.70;;
37657;SDS011;23500;53.268;8.308;2023-03-23T03:21:30;1.30;;;0.77;;
37657;SDS011;23500;53.268;8.308;2023-03-23T03:24:02;0.75;;;0.75;;
37657;SDS011;23500;53.268;8.308;2023-03-23T03:26:31;1.05;;;0.90;;
37657;SDS011;23500;53.268;8.308;2023-03-23T03:28:59;0.80;;;0.80;;
37657;SDS011;23500;53.268;8.308;2023-03-23T03:31:28;1.67;;;0.95;;
37657;SDS011;23500;53.268;8.308;2023-03-23T03:33:57;0.80;;;0.80;;
37657;SDS011;23500;53.268;8.308;2023-03-23T03:36:27;0.80;;;0.80;;
37657;SDS011;23500;53.268;8.308;2023-03-23T03:39:00;0.80;;;0.80;;
37657;SDS011;23500;53.268;8.308;2023-03-23T03:41:31;0.82;;;0.82;;
37657;SDS011;23500;53.268;8.308;2023-03-23T03:43:57;0.85;;;0.80;;
37657;SDS011;23500;53.268;8.308;2023-03-23T03:46:23;0.70;;;0.70;;
37657;SDS011;23500;53.268;8.308;2023-03-23T03:48:52;0.93;;;0.80;;
37657;SDS011;23500;53.268;8.308;2023-03-23T03:51:18;0.98;;;0.88;;
37657;SDS011;23500;53.268;8.308;2023-03-23T03:53:44;0.73;;;0.70;;
37657;SDS011;23500;53.268;8.308;2023-03-23T03:56:09;0.90;;;0.90;;
37657;SDS011;23500;53.268;8.308;2023-03-23T03:58:36;0.82;;;0.80;;
37657;SDS011;23500;53.268;8.308;2023-03-23T04:01:02;0.80;;;0.80;;
37657;SDS011;23500;53.268;8.308;2023-03-23T04:03:28;1.17;;;0.70;;
37657;SDS011;23500;53.268;8.308;2023-03-23T04:05:55;1.02;;;0.90;;
37657;SDS011;23500;53.268;8.308;2023-03-23T04:08:21;1.35;;;0.68;;
37657;SDS011;23500;53.268;8.308;2023-03-23T04:10:48;0.80;;;0.80;;
37657;SDS011;23500;53.268;8.308;2023-03-23T04:13:14;1.05;;;0.70;;
37657;SDS011;23500;53.268;8.308;2023-03-23T04:15:40;0.98;;;0.88;;
37657;SDS011;23500;53.268;8.308;2023-03-23T04:18:06;1.00;;;0.90;;
37657;SDS011;23500;53.268;8.308;2023-03-23T04:20:33;0.80;;;0.80;;
37657;SDS011;23500;53.268;8.308;2023-03-23T04:23:00;0.80;;;0.80;;
37657;SDS011;23500;53.268;8.308;2023-03-23T04:25:26;0.70;;;0.70;;
37657;SDS011;23500;53.268;8.308;2023-03-23T04:27:53;1.13;;;1.00;;
37657;SDS011;23500;53.268;8.308;2023-03-23T04:30:20;0.80;;;0.75;;
37657;SDS011;23500;53.268;8.308;2023-03-23T04:32:48;0.80;;;0.80;;
37657;SDS011;23500;53.268;8.308;2023-03-23T04:35:15;0.73;;;0.73;;
37657;SDS011;23500;53.268;8.308;2023-03-23T04:37:42;1.13;;;0.82;;
37657;SDS011;23500;53.268;8.308;2023-03-23T04:40:08;1.05;;;0.70;;
37657;SDS011;23500;53.268;8.308;2023-03-23T04:42:43;0.68;;;0.63;;
37657;SDS011;23500;53.268;8.308;2023-03-23T04:45:13;0.80;;;0.80;;
37657;SDS011;23500;53.268;8.308;2023-03-23T04:47:41;1.25;;;0.93;;
37657;SDS011;23500;53.268;8.308;2023-03-23T04:50:08;1.13;;;0.90;;
37657;SDS011;23500;53.268;8.308;2023-03-23T04:52:37;0.65;;;0.60;;
37657;SDS011;23500;53.268;8.308;2023-03-23T04:55:08;0.80;;;0.80;;
37657;SDS011;23500;53.268;8.308;2023-03-23T04:57:34;0.80;;;0.80;;
37657;SDS011;23500;53.268;8.308;2023-03-23T05:00:03;1.00;;;0.80;;
37657;SDS011;23500;53.268;8.308;2023-03-23T05:02:37;1.15;;;0.90;;
37657;SDS011;23500;53.268;8.308;2023-03-23T05:05:10;0.68;;;0.68;;
37657;SDS011;23500;53.268;8.308;2023-03-23T05:07:40;0.80;;;0.80;;
37657;SDS011;23500;53.268;8.308;2023-03-23T05:10:07;0.85;;;0.85;;
37657;SDS011;23500;53.268;8.308;2023-03-23T05:12:34;1.15;;;0.80;;
37657;SDS011;23500;53.268;8.308;2023-03-23T05:15:00;1.00;;;0.90;;
37657;SDS011;23500;53.268;8.308;2023-03-23T05:17:25;1.20;;;0.90;;
37657;SDS011;23500;53.268;8.308;2023-03-23T05:19:52;0.70;;;0.70;;
37657;SDS011;23500;53.268;8.308;2023-03-23T05:22:18;1.38;;;0.80;;
37657;SDS011;23500;53.268;8.308;2023-03-23T05:24:46;1.00;;;0.73;;
37657;SDS011;23500;53.268;8.308;2023-03-23T05:27:12;0.75;;;0.70;;
37657;SDS011;23500;53.268;8.308;2023-03-23T05:29:39;0.60;;;0.60;;
37657;SDS011;23500;53.268;8.308;2023-03-23T05:32:08;0.90;;;0.70;;
37657;SDS011;23500;53.268;8.308;2023-03-23T05:34:34;1.02;;;0.80;;
37657;SDS011;23500;53.268;8.308;2023-03-23T05:37:00;0.73;;;0.73;;
37657;SDS011;23500;53.268;8.308;2023-03-23T05:39:28;0.63;;;0.63;;
37657;SDS011;23500;53.268;8.308;2023-03-23T05:41:56;0.88;;;0.77;;
37657;SDS011;23500;53.268;8.308;2023-03-23T05:44:22;0.68;;;0.63;;
37657;SDS011;23500;53.268;8.308;2023-03-23T05:46:48;1.67;;;0.70;;
37657;SDS011;23500;53.268;8.308;2023-03-23T05:49:15;0.73;;;0.70;;
37657;SDS011;23500;53.268;8.308;2023-03-23T05:51:44;0.68;;;0.68;;
37657;SDS011;23500;53.268;8.308;2023-03-23T05:54:11;0.80;;;0.80;;
37657;SDS011;23500;53.268;8.308;2023-03-23T05:56:39;1.40;;;0.90;;
37657;SDS011;23500;53.268;8.308;2023-03-23T05:59:05;0.73;;;0.73;;
37657;SDS011;23500;53.268;8.308;2023-03-23T06:01:31;0.70;;;0.70;;
37657;SDS011;23500;53.268;8.308;2023-03-23T06:03:57;0.77;;;0.75;;
37657;SDS011;23500;53.268;8.308;2023-03-23T06:06:27;0.68;;;0.68;;
37657;SDS011;23500;53.268;8.308;2023-03-23T06:08:57;0.70;;;0.70;;
37657;SDS011;23500;53.268;8.308;2023-03-23T06:11:24;1.40;;;0.80;;
37657;SDS011;23500;53.268;8.308;2023-03-23T06:13:51;1.00;;;0.90;;
37657;SDS011;23500;53.268;8.308;2023-03-23T06:16:17;0.55;;;0.55;;
37657;SDS011;23500;53.268;8.308;2023-03-23T06:18:44;0.80;;;0.80;;
37657;SDS011;23500;53.268;8.308;2023-03-23T06:21:10;0.65;;;0.65;;
37657;SDS011;23500;53.268;8.308;2023-03-23T06:23:37;0.60;;;0.60;;
37657;SDS011;23500;53.268;8.308;2023-03-23T06:26:04;0.82;;;0.80;;
37657;SDS011;23500;53.268;8.308;2023-03-23T06:28:32;0.70;;;0.70;;
37657;SDS011;23500;53.268;8.308;2023-03-23T06:31:02;0.80;;;0.80;;
37657;SDS011;23500;53.268;8.308;2023-03-23T06:33:31;0.80;;;0.77;;
37657;SDS011;23500;53.268;8.308;2023-03-23T06:36:01;0.82;;;0.70;;
37657;SDS011;23500;53.268;8.308;2023-03-23T06:38:27;1.55;;;0.60;;
37657;SDS011;23500;53.268;8.308;2023-03-23T06:40:53;0.70;;;0.65;;
37657;SDS011;23500;53.268;8.308;2023-03-23T06:43:20;0.70;;;0.70;;
37657;SDS011;23500;53.268;8.308;2023-03-23T06:45:46;0.80;;;0.75;;
37657;SDS011;23500;53.268;8.308;2023-03-23T06:48:15;0.80;;;0.70;;
37657;SDS011;23500;53.268;8.308;2023-03-23T06:50:44;0.80;;;0.70;;
37657;SDS011;23500;53.268;8.308;2023-03-23T06:53:11;1.13;;;0.90;;
37657;SDS011;23500;53.268;8.308;2023-03-23T06:55:37;0.80;;;0.80;;
37657;SDS011;23500;53.268;8.308;2023-03-23T06:58:04;1.95;;;0.80;;
37657;SDS011;23500;53.268;8.308;2023-03-23T07:00:31;1.65;;;0.77;;
37657;SDS011;23500;53.268;8.308;2023-03-23T07:02:58;1.05;;;0.88;;
37657;SDS011;23500;53.268;8.308;2023-03-23T07:05:23;1.50;;;0.82;;
37657;SDS011;23500;53.268;8.308;2023-03-23T07:07:50;1.60;;;0.88;;
37657;SDS011;23500;53.268;8.308;2023-03-23T07:10:16;4.30;;;1.00;;
37657;SDS011;23500;53.268;8.308;2023-03-23T07:12:42;3.38;;;0.88;;
37657;SDS011;23500;53.268;8.308;2023-03-23T07:15:08;4.30;;;0.93;;
37657;SDS011;23500;53.268;8.308;2023-03-23T07:17:36;2.40;;;0.90;;
37657;SDS011;23500;53.268;8.308;2023-03-23T07:20:03;7.97;;;1.13;;
37657;SDS011;23500;53.268;8.308;2023-03-23T07:22:29;3.63;;;0.80;;
37657;SDS011;23500;53.268;8.308;2023-03-23T07:24:55;3.17;;;0.90;;
37657;SDS011;23500;53.268;8.308;2023-03-23T07:27:21;2.13;;;0.82;;
37657;SDS011;23500;53.268;8.308;2023-03-23T07:29:47;3.75;;;0.70;;
37657;SDS011;23500;53.268;8.308;2023-03-23T07:32:13;3.05;;;0.82;;
37657;SDS011;23500;53.268;8.308;2023-03-23T07:34:39;1.90;;;0.80;;
37657;SDS011;23500;53.268;8.308;2023-03-23T07:37:05;4.93;;;1.10;;
37657;SDS011;23500;53.268;8.308;2023-03-23T07:39:31;1.52;;;0.80;;
37657;SDS011;23500;53.268;8.308;2023-03-23T07:41:58;1.27;;;0.65;;
37657;SDS011;23500;53.268;8.308;2023-03-23T07:44:24;2.38;;;0.88;;
37657;SDS011;23500;53.268;8.308;2023-03-23T07:46:50;2.75;;;0.75;;
37657;SDS011;23500;53.268;8.308;2023-03-23T07:49:16;4.18;;;1.00;;
37657;SDS011;23500;53.268;8.308;2023-03-23T07:51:42;2.80;;;1.00;;
37657;SDS011;23500;53.268;8.308;2023-03-23T07:54:08;1.65;;;1.00;;
37657;SDS011;23500;53.268;8.308;2023-03-23T07:56:35;2.78;;;0.80;;
37657;SDS011;23500;53.268;8.308;2023-03-23T07:59:01;3.53;;;0.98;;
37657;SDS011;23500;53.268;8.308;2023-03-23T08:01:29;3.47;;;0.80;;
37657;SDS011;23500;53.268;8.308;2023-03-23T08:03:55;4.07;;;1.00;;
37657;SDS011;23500;53.268;8.308;2023-03-23T08:06:23;1.40;;;0.95;;
37657;SDS011;23500;53.268;8.308;2023-03-23T08:08:49;11.77;;;1.58;;
37657;SDS011;23500;53.268;8.308;2023-03-23T08:11:17;4.80;;;1.20;;
37657;SDS011;23500;53.268;8.308;2023-03-23T08:13:43;3.88;;;1.20;;
37657;SDS011;23500;53.268;8.308;2023-03-23T08:16:10;1.30;;;1.00;;
37657;SDS011;23500;53.268;8.308;2023-03-23T08:18:36;1.00;;;0.90;;
37657;SDS011;23500;53.268;8.308;2023-03-23T08:21:04;2.42;;;1.08;;
37657;SDS011;23500;53.268;8.308;2023-03-23T08:23:31;5.22;;;1.30;;
37657;SDS011;23500;53.268;8.308;2023-03-23T08:25:59;3.10;;;1.08;;
37657;SDS011;23500;53.268;8.308;2023-03-23T08:28:25;3.25;;;1.00;;
37657;SDS011;23500;53.268;8.308;2023-03-23T08:30:51;3.47;;;1.00;;
37657;SDS011;23500;53.268;8.308;2023-03-23T08:33:17;3.92;;;1.00;;
37657;SDS011;23500;53.268;8.308;2023-03-23T08:35:43;2.55;;;1.00;;
37657;SDS011;23500;53.268;8.308;2023-03-23T08:38:10;2.50;;;0.90;;
37657;SDS011;23500;53.268;8.308;2023-03-23T08:40:36;3.38;;;1.10;;
37657;SDS011;23500;53.268;8.308;2023-03-23T08:43:03;3.75;;;1.38;;
37657;SDS011;23500;53.268;8.308;2023-03-23T08:45:35;3.55;;;1.13;;
37657;SDS011;23500;53.268;8.308;2023-03-23T08:48:01;5.97;;;1.40;;
37657;SDS011;23500;53.268;8.308;2023-03-23T08:50:27;2.33;;;1.02;;
37657;SDS011;23500;53.268;8.308;2023-03-23T08:52:55;2.75;;;0.90;;
37657;SDS011;23500;53.268;8.308;2023-03-23T08:55:21;2.15;;;1.00;;
37657;SDS011;23500;53.268;8.308;2023-03-23T08:57:47;2.15;;;1.00;;
37657;SDS011;23500;53.268;8.308;2023-03-23T09:00:14;3.75;;;1.30;;
37657;SDS011;23500;53.268;8.308;2023-03-23T09:02:49;2.05;;;1.08;;
37657;SDS011;23500;53.268;8.308;2023-03-23T09:05:17;5.25;;;1.15;;
37657;SDS011;23500;53.268;8.308;2023-03-23T09:07:46;3.40;;;1.00;;
37657;SDS011;23500;53.268;8.308;2023-03-23T09:10:13;5.43;;;1.00;;
37657;SDS011;23500;53.268;8.308;2023-03-23T09:12:40;1.48;;;0.90;;
37657;SDS011;23500;53.268;8.308;2023-03-23T09:15:11;2.35;;;1.10;;
37657;SDS011;23500;53.268;8.308;2023-03-23T09:17:39;2.95;;;1.02;;
37657;SDS011;23500;53.268;8.308;2023-03-23T09:20:08;3.63;;;1.20;;
37657;SDS011;23500;53.268;8.308;2023-03-23T09:22:45;1.50;;;0.90;;
37657;SDS011;23500;53.268;8.308;2023-03-23T09:25:14;2.58;;;1.10;;
37657;SDS011;23500;53.268;8.308;2023-03-23T09:28:02;2.30;;;1.08;;
37657;SDS011;23500;53.268;8.308;2023-03-23T09:30:32;3.05;;;1.25;;
37657;SDS011;23500;53.268;8.308;2023-03-23T09:33:01;2.25;;;1.00;;
37657;SDS011;23500;53.268;8.308;2023-03-23T09:35:34;2.80;;;1.20;;
37657;SDS011;23500;53.268;8.308;2023-03-23T09:38:05;1.70;;;1.10;;
37657;SDS011;23500;53.268;8.308;2023-03-23T09:46:44;2.53;;;1.20;;
37657;SDS011;23500;53.268;8.308;2023-03-23T09:49:30;2.75;;;1.02;;
37657;SDS011;23500;53.268;8.308;2023-03-23T09:54:41;2.33;;;1.15;;
37657;SDS011;23500;53.268;8.308;2023-03-23T09:57:14;3.45;;;1.70;;
37657;SDS011;23500;53.268;8.308;2023-03-23T10:00:09;2.47;;;1.30;;
37657;SDS011;23500;53.268;8.308;2023-03-23T10:05:37;2.70;;;1.05;;
37657;SDS011;23500;53.268;8.308;2023-03-23T10:08:09;2.63;;;1.08;;
37657;SDS011;23500;53.268;8.308;2023-03-23T10:13:47;4.75;;;1.02;;
37657;SDS011;23500;53.268;8.308;2023-03-23T10:16:19;2.53;;;1.10;;
37657;SDS011;23500;53.268;8.308;2023-03-23T10:21:37;2.90;;;1.48;;
37657;SDS011;23500;53.268;8.308;2023-03-23T10:24:08;2.78;;;1.33;;
37657;SDS011;23500;53.268;8.308;2023-03-23T10:32:20;4.38;;;1.20;;
37657;SDS011;23500;53.268;8.308;2023-03-23T10:35:03;2.65;;;1.13;;
37657;SDS011;23500;53.268;8.308;2023-03-23T10:37:36;3.80;;;1.25;;
37657;SDS011;23500;53.268;8.308;2023-03-23T10:40:06;2.92;;;1.35;;
37657;SDS011;23500;53.268;8.308;2023-03-23T10:42:40;3.08;;;1.00;;
37657;SDS011;23500;53.268;8.308;2023-03-23T10:45:25;4.28;;;1.50;;
37657;SDS011;23500;53.268;8.308;2023-03-23T10:51:03;2.67;;;1.17;;
37657;SDS011;23500;53.268;8.308;2023-03-23T10:54:04;3.92;;;1.48;;
37657;SDS011;23500;53.268;8.308;2023-03-23T10:56:26;4.03;;;1.25;;
37657;SDS011;23500;53.268;8.308;2023-03-23T10:58:54;2.08;;;1.15;;
37657;SDS011;23500;53.268;8.308;2023-03-23T11:01:28;2.90;;;1.38;;
37657;SDS011;23500;53.268;8.308;2023-03-23T11:03:56;4.05;;;1.20;;
37657;SDS011;23500;53.268;8.308;2023-03-23T11:06:27;2.25;;;1.33;;
37657;SDS011;23500;53.268;8.308;2023-03-23T11:08:58;3.58;;;1.40;;
37657;SDS011;23500;53.268;8.308;2023-03-23T11:11:39;3.20;;;1.58;;
37657;SDS011;23500;53.268;8.308;2023-03-23T11:14:28;3.90;;;1.17;;
37657;SDS011;23500;53.268;8.308;2023-03-23T11:16:56;4.45;;;1.25;;
37657;SDS011;23500;53.268;8.308;2023-03-23T11:19:35;5.43;;;1.20;;
37657;SDS011;23500;53.268;8.308;2023-03-23T11:24:40;3.90;;;1.70;;
37657;SDS011;23500;53.268;8.308;2023-03-23T11:27:09;3.15;;;1.13;;
37657;SDS011;23500;53.268;8.308;2023-03-23T11:29:36;2.00;;;1.15;;
37657;SDS011;23500;53.268;8.308;2023-03-23T11:32:10;2.65;;;1.30;;
37657;SDS011;23500;53.268;8.308;2023-03-23T11:34:46;3.75;;;1.30;;
37657;SDS011;23500;53.268;8.308;2023-03-23T11:42:13;5.80;;;1.38;;
37657;SDS011;23500;53.268;8.308;2023-03-23T11:44:47;4.82;;;1.45;;
37657;SDS011;23500;53.268;8.308;2023-03-23T11:47:16;3.30;;;1.55;;
37657;SDS011;23500;53.268;8.308;2023-03-23T11:55:32;4.63;;;1.40;;
37657;SDS011;23500;53.268;8.308;2023-03-23T11:58:00;5.93;;;1.60;;
37657;SDS011;23500;53.268;8.308;2023-03-23T12:00:30;5.05;;;1.48;;
37657;SDS011;23500;53.268;8.308;2023-03-23T12:03:02;4.57;;;1.50;;
37657;SDS011;23500;53.268;8.308;2023-03-23T12:08:20;5.45;;;1.50;;
37657;SDS011;23500;53.268;8.308;2023-03-23T12:14:01;2.80;;;1.33;;
37657;SDS011;23500;53.268;8.308;2023-03-23T12:16:30;5.00;;;1.58;;
37657;SDS011;23500;53.268;8.308;2023-03-23T12:35:19;3.95;;;1.38;;
37657;SDS011;23500;53.268;8.308;2023-03-23T12:38:08;2.28;;;1.20;;
37657;SDS011;23500;53.268;8.308;2023-03-23T12:54:50;3.42;;;1.10;;
37657;SDS011;23500;53.268;8.308;2023-03-23T13:05:24;3.45;;;1.50;;
37657;SDS011;23500;53.268;8.308;2023-03-23T13:10:40;2.70;;;1.40;;
37657;SDS011;23500;53.268;8.308;2023-03-23T13:13:15;2.38;;;1.42;;
37657;SDS011;23500;53.268;8.308;2023-03-23T13:18:39;2.38;;;1.27;;
37657;SDS011;23500;53.268;8.308;2023-03-23T13:21:32;7.82;;;1.60;;
37657;SDS011;23500;53.268;8.308;2023-03-23T13:24:08;4.30;;;1.50;;
37657;SDS011;23500;53.268;8.308;2023-03-23T13:26:46;6.25;;;1.25;;
37657;SDS011;23500;53.268;8.308;2023-03-23T13:29:17;2.60;;;1.10;;
37657;SDS011;23500;53.268;8.308;2023-03-23T13:31:45;2.72;;;1.25;;
37657;SDS011;23500;53.268;8.308;2023-03-23T13:34:17;2.03;;;1.27;;
37657;SDS011;23500;53.268;8.308;2023-03-23T13:37:01;3.75;;;1.30;;
37657;SDS011;23500;53.268;8.308;2023-03-23T13:39:29;3.88;;;1.15;;
37657;SDS011;23500;53.268;8.308;2023-03-23T13:42:05;5.95;;;1.35;;
37657;SDS011;23500;53.268;8.308;2023-03-23T13:44:43;1.80;;;1.10;;
37657;SDS011;23500;53.268;8.308;2023-03-23T13:52:46;3.10;;;1.40;;
37657;SDS011;23500;53.268;8.308;2023-03-23T14:03:13;3.47;;;1.45;;
37657;SDS011;23500;53.268;8.308;2023-03-23T14:11:02;5.82;;;1.40;;
37657;SDS011;23500;53.268;8.308;2023-03-23T14:16:21;2.60;;;1.30;;
37657;SDS011;23500;53.268;8.308;2023-03-23T14:18:59;4.22;;;1.60;;
37657;SDS011;23500;53.268;8.308;2023-03-23T14:24:05;3.30;;;1.60;;
37657;SDS011;23500;53.268;8.308;2023-03-23T14:26:37;2.88;;;1.48;;
37657;SDS011;23500;53.268;8.308;2023-03-23T14:29:04;3.58;;;1.42;;
37657;SDS011;23500;53.268;8.308;2023-03-23T14:31:31;4.22;;;1.35;;
37657;SDS011;23500;53.268;8.308;2023-03-23T14:34:01;3.67;;;1.52;;
37657;SDS011;23500;53.268;8.308;2023-03-23T14:36:30;3.60;;;1.38;;
37657;SDS011;23500;53.268;8.308;2023-03-23T14:41:46;3.72;;;1.40;;
37657;SDS011;23500;53.268;8.308;2023-03-23T14:44:23;5.78;;;1.80;;
37657;SDS011;23500;53.268;8.308;2023-03-23T14:46:51;2.72;;;1.42;;
37657;SDS011;23500;53.268;8.308;2023-03-23T14:49:21;3.72;;;1.20;;
37657;SDS011;23500;53.268;8.308;2023-03-23T14:51:56;2.72;;;1.55;;
37657;SDS011;23500;53.268;8.308;2023-03-23T14:54:27;3.47;;;1.40;;
37657;SDS011;23500;53.268;8.308;2023-03-23T14:56:54;3.25;;;1.30;;
37657;SDS011;23500;53.268;8.308;2023-03-23T14:59:20;2.58;;;1.40;;
37657;SDS011;23500;53.268;8.308;2023-03-23T15:01:47;3.47;;;1.30;;
37657;SDS011;23500;53.268;8.308;2023-03-23T15:06:50;4.43;;;1.48;;
37657;SDS011;23500;53.268;8.308;2023-03-23T15:09:20;2.35;;;1.38;;
37657;SDS011;23500;53.268;8.308;2023-03-23T15:12:03;2.50;;;1.55;;
37657;SDS011;23500;53.268;8.308;2023-03-23T15:14:37;3.00;;;1.45;;
37657;SDS011;23500;53.268;8.308;2023-03-23T15:17:19;3.10;;;1.40;;
37657;SDS011;23500;53.268;8.308;2023-03-23T15:19:50;2.17;;;1.20;;
37657;SDS011;23500;53.268;8.308;2023-03-23T15:22:28;2.45;;;1.45;;
37657;SDS011;23500;53.268;8.308;2023-03-23T15:25:11;5.88;;;1.80;;
37657;SDS011;23500;53.268;8.308;2023-03-23T15:27:50;5.15;;;1.50;;
37657;SDS011;23500;53.268;8.308;2023-03-23T15:32:53;4.32;;;1.42;;
37657;SDS011;23500;53.268;8.308;2023-03-23T15:35:24;3.88;;;1.60;;
37657;SDS011;23500;53.268;8.308;2023-03-23T15:37:58;5.22;;;1.65;;
37657;SDS011;23500;53.268;8.308;2023-03-23T15:40:32;3.75;;;1.33;;
37657;SDS011;23500;53.268;8.308;2023-03-23T15:48:28;3.90;;;1.58;;
37657;SDS011;23500;53.268;8.308;2023-03-23T15:51:11;9.57;;;1.67;;
37657;SDS011;23500;53.268;8.308;2023-03-23T15:53:38;5.47;;;1.60;;
37657;SDS011;23500;53.268;8.308;2023-03-23T15:56:05;3.08;;;1.52;;
37657;SDS011;23500;53.268;8.308;2023-03-23T15:58:33;5.20;;;1.70;;
37657;SDS011;23500;53.268;8.308;2023-03-23T16:01:01;5.47;;;1.63;;
37657;SDS011;23500;53.268;8.308;2023-03-23T16:03:37;6.03;;;1.52;;
37657;SDS011;23500;53.268;8.308;2023-03-23T16:06:10;10.95;;;1.80;;
37657;SDS011;23500;53.268;8.308;2023-03-23T16:08:38;6.10;;;1.52;;
37657;SDS011;23500;53.268;8.308;2023-03-23T16:11:14;5.20;;;1.80;;
37657;SDS011;23500;53.268;8.308;2023-03-23T16:13:42;4.15;;;1.45;;
37657;SDS011;23500;53.268;8.308;2023-03-23T16:16:13;4.05;;;1.60;;
37657;SDS011;23500;53.268;8.308;2023-03-23T16:18:47;6.07;;;1.35;;
37657;SDS011;23500;53.268;8.308;2023-03-23T16:21:13;2.95;;;1.52;;
37657;SDS011;23500;53.268;8.308;2023-03-23T16:23:39;5.32;;;1.48;;
37657;SDS011;23500;53.268;8.308;2023-03-23T16:26:08;6.13;;;1.50;;
37657;SDS011;23500;53.268;8.308;2023-03-23T16:28:34;4.40;;;1.90;;
37657;SDS011;23500;53.268;8.308;2023-03-23T16:31:00;4.15;;;1.52;;
37657;SDS011;23500;53.268;8.308;2023-03-23T16:33:26;3.45;;;1.23;;
37657;SDS011;23500;53.268;8.308;2023-03-23T16:35:52;7.03;;;1.63;;
37657;SDS011;23500;53.268;8.308;2023-03-23T16:38:18;5.35;;;1.20;;
37657;SDS011;23500;53.268;8.308;2023-03-23T16:40:44;4.85;;;1.55;;
37657;SDS011;23500;53.268;8.308;2023-03-23T16:43:10;5.47;;;1.48;;
37657;SDS011;23500;53.268;8.308;2023-03-23T16:45:38;3.78;;;1.50;;
37657;SDS011;23500;53.268;8.308;2023-03-23T16:48:06;6.97;;;1.25;;
37657;SDS011;23500;53.268;8.308;2023-03-23T16:50:33;4.85;;;1.55;;
37657;SDS011;23500;53.268;8.308;2023-03-23T16:53:00;8.27;;;1.50;;
37657;SDS011;23500;53.268;8.308;2023-03-23T16:55:27;5.18;;;1.60;;
37657;SDS011;23500;53.268;8.308;2023-03-23T16:57:54;6.20;;;1.55;;
37657;SDS011;23500;53.268;8.308;2023-03-23T17:00:20;6.10;;;1.48;;
37657;SDS011;23500;53.268;8.308;2023-03-23T17:02:50;5.95;;;1.80;;
37657;SDS011;23500;53.268;8.308;2023-03-23T17:05:18;7.68;;;2.20;;
37657;SDS011;23500;53.268;8.308;2023-03-23T17:07:45;7.55;;;2.90;;
37657;SDS011;23500;53.268;8.308;2023-03-23T17:10:11;6.85;;;2.60;;
37657;SDS011;23500;53.268;8.308;2023-03-23T17:12:38;6.35;;;2.80;;
37657;SDS011;23500;53.268;8.308;2023-03-23T17:15:05;8.82;;;3.42;;
37657;SDS011;23500;53.268;8.308;2023-03-23T17:17:32;7.55;;;3.30;;
37657;SDS011;23500;53.268;8.308;2023-03-23T17:19:58;9.80;;;3.67;;
37657;SDS011;23500;53.268;8.308;2023-03-23T17:22:24;9.80;;;3.75;;
37657;SDS011;23500;53.268;8.308;2023-03-23T17:24:50;9.18;;;3.28;;
37657;SDS011;23500;53.268;8.308;2023-03-23T17:27:20;14.38;;;4.07;;
37657;SDS011;23500;53.268;8.308;2023-03-23T17:29:46;9.82;;;3.88;;